Time;durP1;ratioP1;P1;durP2;ratioP2;P2;SDS_P1;SDS_P2;PMS_P1;PMS_P2;Temp;Humidity;BMP_temperature;BMP_pressure;BME280_temperature;BME280_humidity;BME280_pressure;Samples;Min_cycle;Max_cycle;Signal;HPM_P1;HPM_P2
2023/03/09 00:01:28;;;;;;;12.25;6.60;;;;;;;;;;5017070;28;20523;-75
2023/03/09 00:03:55;;;;;;;10.65;6.18;;;;;;;;;;5012575;28;20096;-75
2023/03/09 00:06:21;;;;;;;12.02;6.68;;;;;;;;;;4997121;28;20030;-76
2023/03/09 00:08:47;;;;;;;10.07;6.13;;;;;;;;;;5013208;28;20034;-76
2023/03/09 00:11:13;;;;;;;11.82;6.40;;;;;;;;;;4995857;28;20064;-76
2023/03/09 00:13:38;;;;;;;13.05;7.20;;;;;;;;;;5021310;28;20567;-76
2023/03/09 00:16:18;;;;;;;12.20;6.97;;;;;;;;;;5005077;28;20030;-76
2023/03/09 00:18:44;;;;;;;12.15;6.72;;;;;;;;;;5008729;28;20026;-76
2023/03/09 00:21:14;;;;;;;13.35;7.32;;;;;;;;;;5002645;28;20032;-76
2023/03/09 00:23:45;;;;;;;13.98;6.95;;;;;;;;;;4999084;28;20025;-76
2023/03/09 00:26:10;;;;;;;12.98;7.05;;;;;;;;;;5017563;28;20045;-76
2023/03/09 00:28:37;;;;;;;11.80;6.43;;;;;;;;;;5016681;28;20121;-76
2023/03/09 00:31:05;;;;;;;11.50;6.20;;;;;;;;;;4999686;28;20064;-75
2023/03/09 00:33:30;;;;;;;11.77;6.97;;;;;;;;;;4994068;28;20029;-76
2023/03/09 00:35:56;;;;;;;11.55;6.47;;;;;;;;;;5000183;28;20045;-76
2023/03/09 00:38:21;;;;;;;11.38;6.18;;;;;;;;;;5012521;28;20021;-76
2023/03/09 00:40:47;;;;;;;12.38;6.43;;;;;;;;;;4991218;28;20041;-76
2023/03/09 00:43:12;;;;;;;12.85;6.57;;;;;;;;;;5011003;28;20029;-75
2023/03/09 00:45:38;;;;;;;13.23;7.25;;;;;;;;;;5006564;28;20029;-76
2023/03/09 00:48:03;;;;;;;11.52;6.47;;;;;;;;;;4988094;28;20100;-76
2023/03/09 00:50:29;;;;;;;12.65;7.13;;;;;;;;;;4993425;28;20018;-76
2023/03/09 00:52:54;;;;;;;13.23;7.13;;;;;;;;;;4998654;28;20029;-76
2023/03/09 00:55:20;;;;;;;13.23;7.05;;;;;;;;;;5012039;28;20068;-76
2023/03/09 00:57:45;;;;;;;13.45;7.18;;;;;;;;;;5004663;28;20390;-76
2023/03/09 01:00:11;;;;;;;11.85;7.00;;;;;;;;;;5006905;28;20030;-76
2023/03/09 01:02:36;;;;;;;13.50;7.00;;;;;;;;;;5011908;28;20026;-75
2023/03/09 01:05:03;;;;;;;12.80;7.30;;;;;;;;;;5011625;28;20076;-76
2023/03/09 01:07:30;;;;;;;13.75;7.15;;;;;;;;;;5016068;28;20117;-75
2023/03/09 01:09:55;;;;;;;12.05;6.85;;;;;;;;;;5014468;28;20068;-76
2023/03/09 01:12:21;;;;;;;12.73;7.40;;;;;;;;;;4998216;28;20032;-76
2023/03/09 01:14:48;;;;;;;14.57;7.50;;;;;;;;;;5013476;28;20037;-75
2023/03/09 01:17:14;;;;;;;12.07;6.90;;;;;;;;;;4997260;28;20486;-76
2023/03/09 01:19:39;;;;;;;12.45;7.05;;;;;;;;;;5009169;28;20018;-75
2023/03/09 01:22:04;;;;;;;14.85;7.97;;;;;;;;;;5011248;28;20088;-75
2023/03/09 01:24:30;;;;;;;11.82;6.68;;;;;;;;;;5012525;28;20109;-76
2023/03/09 01:26:55;;;;;;;13.75;7.28;;;;;;;;;;5008270;28;20541;-75
2023/03/09 01:29:21;;;;;;;13.77;7.40;;;;;;;;;;4989817;28;20030;-76
2023/03/09 01:31:46;;;;;;;13.05;7.72;;;;;;;;;;5007617;28;20056;-76
2023/03/09 01:34:12;;;;;;;13.68;7.32;;;;;;;;;;4995048;28;20080;-79
2023/03/09 01:36:39;;;;;;;12.77;7.18;;;;;;;;;;5006520;28;20022;-75
2023/03/09 01:39:04;;;;;;;12.65;7.07;;;;;;;;;;5004921;28;20034;-75
2023/03/09 01:41:30;;;;;;;13.32;7.25;;;;;;;;;;5001464;28;20470;-76
2023/03/09 01:43:56;;;;;;;14.23;7.70;;;;;;;;;;4989615;28;20022;-78
2023/03/09 01:46:24;;;;;;;15.07;7.68;;;;;;;;;;4998380;28;20034;-76
2023/03/09 01:49:24;;;;;;;14.70;7.55;;;;;;;;;;5004908;28;20504;-76
2023/03/09 01:52:01;;;;;;;13.43;7.18;;;;;;;;;;5004321;28;21332;-76
2023/03/09 01:55:12;;;;;;;12.63;6.75;;;;;;;;;;5004225;28;20501;-76
2023/03/09 01:58:03;;;;;;;13.52;6.70;;;;;;;;;;4966177;28;20038;-76
2023/03/09 02:00:29;;;;;;;12.77;7.45;;;;;;;;;;5008201;28;20025;-76
2023/03/09 02:03:10;;;;;;;14.23;7.25;;;;;;;;;;5008441;28;20103;-76
2023/03/09 02:05:54;;;;;;;13.23;7.13;;;;;;;;;;5006107;28;20029;-76
2023/03/09 02:08:21;;;;;;;15.77;8.13;;;;;;;;;;5001499;28;20116;-75
2023/03/09 02:11:16;;;;;;;13.52;7.30;;;;;;;;;;5009140;28;20438;-76
2023/03/09 02:13:45;;;;;;;13.55;7.45;;;;;;;;;;4992165;28;20124;-76
2023/03/09 02:16:10;;;;;;;16.55;8.27;;;;;;;;;;5017873;28;20033;-75
2023/03/09 02:18:37;;;;;;;15.70;8.15;;;;;;;;;;4973180;28;20037;-79
2023/03/09 02:21:26;;;;;;;14.52;7.70;;;;;;;;;;5012000;28;20068;-78
2023/03/09 02:24:05;;;;;;;14.35;7.18;;;;;;;;;;4998425;28;20072;-76
2023/03/09 02:26:43;;;;;;;15.52;8.30;;;;;;;;;;4992762;28;20500;-76
2023/03/09 02:29:08;;;;;;;16.33;8.60;;;;;;;;;;4991234;28;20032;-75
2023/03/09 02:31:34;;;;;;;16.23;8.60;;;;;;;;;;4989259;28;20021;-76
2023/03/09 02:33:59;;;;;;;15.80;8.30;;;;;;;;;;4986468;28;20113;-76
2023/03/09 02:36:26;;;;;;;14.95;8.63;;;;;;;;;;5008260;28;20064;-76
2023/03/09 02:38:51;;;;;;;18.60;9.02;;;;;;;;;;5007870;28;20025;-75
2023/03/09 02:41:19;;;;;;;14.93;8.18;;;;;;;;;;5010617;28;20081;-76
2023/03/09 02:43:52;;;;;;;15.27;7.72;;;;;;;;;;4983094;28;20509;-76
2023/03/09 02:46:17;;;;;;;14.20;7.63;;;;;;;;;;5007477;28;20113;-76
2023/03/09 02:48:42;;;;;;;14.65;7.88;;;;;;;;;;4991866;28;20120;-76
2023/03/09 02:51:08;;;;;;;14.43;7.50;;;;;;;;;;4995271;28;20087;-76
2023/03/09 02:53:34;;;;;;;15.77;7.57;;;;;;;;;;4988489;28;20367;-75
2023/03/09 02:56:00;;;;;;;15.05;7.65;;;;;;;;;;4985684;28;20026;-76
2023/03/09 02:58:26;;;;;;;14.20;7.78;;;;;;;;;;4996206;28;20031;-75
2023/03/09 03:00:51;;;;;;;15.25;7.93;;;;;;;;;;5018462;28;20072;-76
2023/03/09 03:03:20;;;;;;;15.57;8.00;;;;;;;;;;4992225;28;20022;-76
2023/03/09 03:05:46;;;;;;;14.70;8.13;;;;;;;;;;5008210;28;20138;-76
2023/03/09 03:08:12;;;;;;;15.55;8.30;;;;;;;;;;4995984;28;20038;-76
2023/03/09 03:10:37;;;;;;;16.92;8.35;;;;;;;;;;5011014;28;20095;-76
2023/03/09 03:13:02;;;;;;;14.30;8.15;;;;;;;;;;5010171;28;20022;-76
2023/03/09 03:15:28;;;;;;;15.23;7.95;;;;;;;;;;5008494;28;20022;-76
2023/03/09 03:17:53;;;;;;;15.23;8.25;;;;;;;;;;5008755;28;20030;-76
2023/03/09 03:20:19;;;;;;;14.57;7.63;;;;;;;;;;5008747;28;20112;-76
2023/03/09 03:22:44;;;;;;;16.05;8.32;;;;;;;;;;4991955;28;20034;-76
2023/03/09 03:25:11;;;;;;;16.58;8.55;;;;;;;;;;5004462;28;20029;-76
2023/03/09 03:27:36;;;;;;;15.32;7.70;;;;;;;;;;4992300;28;21000;-76
2023/03/09 03:30:02;;;;;;;15.30;7.72;;;;;;;;;;5017574;28;20033;-76
2023/03/09 03:32:28;;;;;;;17.48;8.60;;;;;;;;;;4992458;28;20042;-75
2023/03/09 03:34:53;;;;;;;17.23;8.55;;;;;;;;;;5011289;28;20081;-76
2023/03/09 03:37:19;;;;;;;16.40;8.65;;;;;;;;;;4993436;28;20060;-75
2023/03/09 03:39:44;;;;;;;17.98;8.93;;;;;;;;;;5006123;28;20037;-75
2023/03/09 03:42:09;;;;;;;17.88;8.65;;;;;;;;;;5009790;28;20032;-75
2023/03/09 03:44:35;;;;;;;16.75;8.65;;;;;;;;;;5001035;28;20062;-75
2023/03/09 03:47:00;;;;;;;16.63;8.90;;;;;;;;;;5008182;28;20105;-76
2023/03/09 03:49:26;;;;;;;16.23;8.77;;;;;;;;;;5009502;28;20036;-76
2023/03/09 03:51:52;;;;;;;17.38;9.00;;;;;;;;;;5012277;28;20040;-76
2023/03/09 03:54:17;;;;;;;17.88;8.93;;;;;;;;;;5009665;28;20069;-76
2023/03/09 03:56:42;;;;;;;17.95;8.77;;;;;;;;;;4991883;28;20032;-76
2023/03/09 03:59:08;;;;;;;19.08;9.32;;;;;;;;;;5016751;28;20104;-76
2023/03/09 04:01:33;;;;;;;18.35;9.18;;;;;;;;;;5007558;28;20030;-76
2023/03/09 04:03:59;;;;;;;17.10;8.18;;;;;;;;;;4999106;28;20029;-76
2023/03/09 04:06:24;;;;;;;17.35;8.68;;;;;;;;;;5008949;28;20473;-76
2023/03/09 04:08:50;;;;;;;16.98;8.70;;;;;;;;;;4991914;28;20709;-76
2023/03/09 04:11:15;;;;;;;16.88;8.35;;;;;;;;;;4998133;28;20415;-75
2023/03/09 04:13:40;;;;;;;17.23;8.60;;;;;;;;;;5011634;28;20541;-75
2023/03/09 04:16:06;;;;;;;16.95;8.32;;;;;;;;;;4996438;28;20028;-76
2023/03/09 04:18:31;;;;;;;15.73;8.23;;;;;;;;;;4995047;28;20032;-76
2023/03/09 04:20:57;;;;;;;16.38;8.07;;;;;;;;;;4991517;28;20041;-76
2023/03/09 04:23:23;;;;;;;16.92;8.45;;;;;;;;;;5006813;28;20018;-76
2023/03/09 04:25:56;;;;;;;15.02;8.00;;;;;;;;;;5016222;28;20076;-76
2023/03/09 04:28:21;;;;;;;17.45;8.82;;;;;;;;;;5012099;28;20116;-75
2023/03/09 04:30:47;;;;;;;16.55;8.48;;;;;;;;;;5005351;28;20537;-75
2023/03/09 04:33:12;;;;;;;17.00;8.45;;;;;;;;;;5017314;28;20117;-76
2023/03/09 04:35:37;;;;;;;16.73;8.23;;;;;;;;;;5011028;28;20104;-76
2023/03/09 04:38:03;;;;;;;16.00;8.77;;;;;;;;;;5009014;28;20032;-75
2023/03/09 04:40:28;;;;;;;15.70;8.00;;;;;;;;;;5011007;28;20378;-76
2023/03/09 04:42:54;;;;;;;16.02;8.82;;;;;;;;;;4989931;28;20030;-75
2023/03/09 04:45:19;;;;;;;16.42;8.35;;;;;;;;;;5010577;28;20033;-75
2023/03/09 04:47:45;;;;;;;18.80;8.70;;;;;;;;;;5015130;28;20025;-75
2023/03/09 04:50:11;;;;;;;16.58;8.40;;;;;;;;;;4991204;28;20482;-75
2023/03/09 04:52:36;;;;;;;17.42;8.05;;;;;;;;;;5004734;28;20073;-75
2023/03/09 04:55:02;;;;;;;15.43;7.63;;;;;;;;;;4987507;28;20026;-75
2023/03/09 04:57:27;;;;;;;17.63;9.25;;;;;;;;;;5001705;28;20026;-76
2023/03/09 04:59:53;;;;;;;16.92;8.23;;;;;;;;;;5009254;28;20389;-76
2023/03/09 05:02:18;;;;;;;16.38;8.07;;;;;;;;;;4990153;28;20504;-76
2023/03/09 05:04:44;;;;;;;16.70;8.52;;;;;;;;;;5008105;28;20026;-76
2023/03/09 05:07:09;;;;;;;18.73;8.98;;;;;;;;;;4994215;28;20477;-75
2023/03/09 05:09:35;;;;;;;19.75;7.95;;;;;;;;;;4995168;28;20029;-76
2023/03/09 05:12:00;;;;;;;18.35;8.93;;;;;;;;;;5016573;28;20025;-76
2023/03/09 05:14:25;;;;;;;16.52;8.40;;;;;;;;;;5004195;28;20030;-76
2023/03/09 05:16:52;;;;;;;17.73;8.77;;;;;;;;;;5011514;28;20117;-76
2023/03/09 05:19:21;;;;;;;17.70;8.40;;;;;;;;;;5003714;28;20482;-76
2023/03/09 05:21:46;;;;;;;17.15;9.07;;;;;;;;;;5009428;28;20378;-76
2023/03/09 05:24:12;;;;;;;15.60;8.23;;;;;;;;;;5006882;28;20048;-76
2023/03/09 05:26:37;;;;;;;17.95;8.75;;;;;;;;;;5008451;28;20101;-76
2023/03/09 05:29:03;;;;;;;17.05;8.52;;;;;;;;;;5012772;28;20028;-76
2023/03/09 05:31:28;;;;;;;17.73;8.73;;;;;;;;;;4987657;28;20057;-75
2023/03/09 05:33:54;;;;;;;14.70;7.32;;;;;;;;;;4991278;28;20046;-75
2023/03/09 05:36:23;;;;;;;14.35;8.10;;;;;;;;;;5004465;28;20029;-75
2023/03/09 05:38:49;;;;;;;17.77;8.52;;;;;;;;;;5007219;28;20087;-75
2023/03/09 05:41:16;;;;;;;15.38;7.80;;;;;;;;;;5011766;28;20030;-76
2023/03/09 05:43:41;;;;;;;17.10;8.02;;;;;;;;;;5008532;28;20025;-75
2023/03/09 05:46:16;;;;;;;16.92;8.48;;;;;;;;;;5001830;28;20595;-76
2023/03/09 05:48:43;;;;;;;15.50;7.88;;;;;;;;;;4987335;28;20025;-76
2023/03/09 05:51:10;;;;;;;15.90;8.55;;;;;;;;;;5000102;28;20033;-75
2023/03/09 05:53:36;;;;;;;18.75;8.63;;;;;;;;;;5004470;28;20065;-76
2023/03/09 05:56:03;;;;;;;15.07;7.93;;;;;;;;;;5008681;28;20667;-75
2023/03/09 05:58:29;;;;;;;16.80;8.57;;;;;;;;;;4996920;28;20433;-75
2023/03/09 06:00:56;;;;;;;16.27;7.85;;;;;;;;;;4984364;28;20037;-75
2023/03/09 06:03:22;;;;;;;14.85;7.32;;;;;;;;;;5010199;28;20025;-76
2023/03/09 06:05:47;;;;;;;14.15;7.32;;;;;;;;;;5008884;28;20377;-75
2023/03/09 06:08:13;;;;;;;16.15;7.88;;;;;;;;;;5008965;28;20029;-75
2023/03/09 06:10:39;;;;;;;14.20;7.18;;;;;;;;;;5001051;28;20030;-76
2023/03/09 06:13:04;;;;;;;16.40;8.13;;;;;;;;;;4991688;28;20053;-76
2023/03/09 06:15:30;;;;;;;14.02;7.63;;;;;;;;;;4994014;28;20075;-75
2023/03/09 06:17:55;;;;;;;14.05;7.57;;;;;;;;;;4990218;28;20120;-75
2023/03/09 06:20:21;;;;;;;15.60;7.35;;;;;;;;;;5011190;28;20025;-75
2023/03/09 06:22:46;;;;;;;17.25;8.07;;;;;;;;;;5026759;28;20152;-76
2023/03/09 06:25:12;;;;;;;15.05;7.78;;;;;;;;;;5021233;28;20025;-76
2023/03/09 06:27:38;;;;;;;15.05;7.60;;;;;;;;;;5015232;28;20033;-76
2023/03/09 06:30:04;;;;;;;15.60;7.97;;;;;;;;;;5016870;28;20045;-75
2023/03/09 06:32:33;;;;;;;15.48;7.82;;;;;;;;;;5007783;28;20028;-75
2023/03/09 06:34:59;;;;;;;17.42;8.35;;;;;;;;;;5010410;28;20397;-76
2023/03/09 06:37:24;;;;;;;16.80;8.18;;;;;;;;;;5006666;28;21362;-75
2023/03/09 06:39:50;;;;;;;16.02;7.72;;;;;;;;;;5011183;28;20548;-75
2023/03/09 06:42:15;;;;;;;17.65;8.15;;;;;;;;;;5005584;28;20038;-75
2023/03/09 06:44:42;;;;;;;18.27;7.97;;;;;;;;;;5006838;28;20033;-76
2023/03/09 06:47:08;;;;;;;17.23;7.97;;;;;;;;;;4998416;28;20389;-75
2023/03/09 06:49:34;;;;;;;16.10;8.05;;;;;;;;;;5008085;28;20462;-75
2023/03/09 06:51:59;;;;;;;16.55;7.95;;;;;;;;;;4992161;28;20038;-76
2023/03/09 06:54:25;;;;;;;16.15;7.85;;;;;;;;;;5006414;28;20022;-76
2023/03/09 06:56:51;;;;;;;15.63;8.23;;;;;;;;;;5006397;28;20033;-76
2023/03/09 06:59:17;;;;;;;15.77;7.47;;;;;;;;;;5007073;28;20026;-76
2023/03/09 07:01:42;;;;;;;17.42;8.30;;;;;;;;;;5000466;28;20537;-76
2023/03/09 07:04:07;;;;;;;14.38;7.85;;;;;;;;;;4996099;28;20108;-75
2023/03/09 07:06:33;;;;;;;18.00;9.07;;;;;;;;;;5015592;28;20037;-76
2023/03/09 07:08:58;;;;;;;18.15;8.95;;;;;;;;;;5017123;28;20053;-76
2023/03/09 07:11:24;;;;;;;15.70;8.55;;;;;;;;;;5012022;28;20025;-76
2023/03/09 07:13:49;;;;;;;17.98;8.52;;;;;;;;;;5011905;28;20028;-75
2023/03/09 07:16:15;;;;;;;15.27;7.85;;;;;;;;;;5006019;28;20026;-75
2023/03/09 07:18:40;;;;;;;19.92;8.77;;;;;;;;;;5010947;28;20029;-76
2023/03/09 07:21:05;;;;;;;17.25;7.95;;;;;;;;;;5018662;28;20033;-76
2023/03/09 07:23:31;;;;;;;16.38;8.85;;;;;;;;;;4994797;28;20022;-76
2023/03/09 07:26:02;;;;;;;17.60;8.32;;;;;;;;;;4991596;28;20041;-76
2023/03/09 07:28:28;;;;;;;19.38;9.35;;;;;;;;;;5012587;28;20033;-76
2023/03/09 07:30:54;;;;;;;17.50;8.45;;;;;;;;;;4996584;28;20033;-76
2023/03/09 07:33:19;;;;;;;17.63;8.73;;;;;;;;;;5013043;28;20026;-76
2023/03/09 07:35:45;;;;;;;17.15;7.75;;;;;;;;;;5021172;28;20112;-76
2023/03/09 07:38:10;;;;;;;18.45;8.80;;;;;;;;;;4999065;28;20026;-75
2023/03/09 07:40:36;;;;;;;19.13;9.15;;;;;;;;;;5013970;28;20040;-76
2023/03/09 07:43:02;;;;;;;16.67;8.50;;;;;;;;;;5008132;28;20060;-76
2023/03/09 07:45:28;;;;;;;17.40;8.27;;;;;;;;;;5015722;28;20026;-75
2023/03/09 07:47:54;;;;;;;19.23;8.68;;;;;;;;;;5010828;28;20478;-75
2023/03/09 07:50:19;;;;;;;19.33;9.13;;;;;;;;;;4993350;28;20120;-76
2023/03/09 07:52:45;;;;;;;20.40;10.20;;;;;;;;;;5024452;28;20415;-76
2023/03/09 07:55:12;;;;;;;20.70;9.18;;;;;;;;;;5018816;28;20034;-76
2023/03/09 07:57:38;;;;;;;18.75;8.57;;;;;;;;;;5017736;28;20071;-76
2023/03/09 08:00:12;;;;;;;22.02;9.93;;;;;;;;;;4996080;28;20037;-76
2023/03/09 08:02:40;;;;;;;18.98;9.13;;;;;;;;;;5013413;28;20025;-75
2023/03/09 08:05:08;;;;;;;24.95;10.55;;;;;;;;;;5015537;28;20105;-75
2023/03/09 08:07:34;;;;;;;21.90;9.80;;;;;;;;;;5013815;28;20021;-76
2023/03/09 08:09:59;;;;;;;20.45;8.98;;;;;;;;;;5000862;28;20160;-76
2023/03/09 08:12:25;;;;;;;18.88;9.18;;;;;;;;;;5018813;28;20037;-75
2023/03/09 08:14:50;;;;;;;19.65;9.45;;;;;;;;;;5004101;28;20477;-76
2023/03/09 08:17:16;;;;;;;20.25;9.55;;;;;;;;;;5015458;28;20029;-75
2023/03/09 08:19:41;;;;;;;22.13;10.55;;;;;;;;;;4998476;28;20116;-76
2023/03/09 08:22:06;;;;;;;19.70;9.88;;;;;;;;;;4995350;28;20030;-75
2023/03/09 08:24:32;;;;;;;19.90;8.85;;;;;;;;;;5013158;28;20025;-76
2023/03/09 08:26:58;;;;;;;20.73;10.38;;;;;;;;;;5018733;28;20086;-76
2023/03/09 08:29:23;;;;;;;23.50;10.60;;;;;;;;;;5002417;28;20053;-76
2023/03/09 08:31:49;;;;;;;20.48;9.52;;;;;;;;;;5011307;28;20068;-76
2023/03/09 08:34:18;;;;;;;23.13;10.05;;;;;;;;;;4996144;28;20049;-76
2023/03/09 08:36:43;;;;;;;22.83;10.18;;;;;;;;;;5016584;28;20061;-76
2023/03/09 08:39:09;;;;;;;23.55;10.30;;;;;;;;;;5014853;28;20057;-76
2023/03/09 08:41:34;;;;;;;22.30;10.10;;;;;;;;;;5016188;28;20038;-75
2023/03/09 08:44:00;;;;;;;20.85;9.30;;;;;;;;;;5024260;28;20561;-76
2023/03/09 08:46:25;;;;;;;20.58;10.15;;;;;;;;;;5025744;28;20139;-76
2023/03/09 08:48:50;;;;;;;21.67;10.10;;;;;;;;;;5007063;28;20030;-76
2023/03/09 08:51:17;;;;;;;24.15;10.52;;;;;;;;;;5008035;28;20038;-75
2023/03/09 08:53:42;;;;;;;23.92;11.63;;;;;;;;;;5012459;28;20030;-76
2023/03/09 08:56:11;;;;;;;24.35;11.00;;;;;;;;;;5004479;28;20030;-76
2023/03/09 08:58:37;;;;;;;22.23;10.23;;;;;;;;;;4995388;28;20022;-76
2023/03/09 09:01:04;;;;;;;21.02;10.43;;;;;;;;;;5009537;28;20104;-76
2023/03/09 09:03:30;;;;;;;21.17;9.75;;;;;;;;;;5010926;28;20385;-76
2023/03/09 09:06:01;;;;;;;22.90;10.60;;;;;;;;;;5020807;28;20026;-76
2023/03/09 09:08:27;;;;;;;20.10;9.93;;;;;;;;;;4995117;28;20142;-76
2023/03/09 09:10:52;;;;;;;22.95;10.10;;;;;;;;;;5022018;28;20477;-75
2023/03/09 09:13:18;;;;;;;21.75;10.02;;;;;;;;;;5018508;28;20028;-76
2023/03/09 09:15:43;;;;;;;21.92;10.23;;;;;;;;;;5013601;28;20068;-76
2023/03/09 09:18:09;;;;;;;23.65;10.48;;;;;;;;;;4998433;28;20034;-76
2023/03/09 09:20:35;;;;;;;20.75;9.80;;;;;;;;;;4998327;28;20025;-76
2023/03/09 09:23:01;;;;;;;21.75;9.75;;;;;;;;;;5015051;28;20057;-76
2023/03/09 09:25:26;;;;;;;22.30;10.18;;;;;;;;;;5009760;28;20087;-76
2023/03/09 09:27:52;;;;;;;21.92;10.80;;;;;;;;;;5006727;28;20033;-76
2023/03/09 09:30:18;;;;;;;23.88;10.45;;;;;;;;;;5024337;28;20026;-76
2023/03/09 09:32:44;;;;;;;23.10;10.35;;;;;;;;;;5002830;28;20037;-75
2023/03/09 09:35:11;;;;;;;23.77;10.13;;;;;;;;;;5018963;28;20070;-76
2023/03/09 09:37:37;;;;;;;20.92;10.07;;;;;;;;;;5015051;28;20026;-76
2023/03/09 09:40:04;;;;;;;20.00;9.70;;;;;;;;;;5019178;28;20042;-76
2023/03/09 09:42:35;;;;;;;21.55;9.20;;;;;;;;;;4995443;28;20100;-76
2023/03/09 09:45:04;;;;;;;21.23;10.27;;;;;;;;;;4996014;28;20033;-76
2023/03/09 09:47:30;;;;;;;22.73;9.75;;;;;;;;;;5012583;28;20025;-76
2023/03/09 09:50:00;;;;;;;19.60;10.13;;;;;;;;;;4997292;28;20029;-76
2023/03/09 09:52:56;;;;;;;22.40;9.57;;;;;;;;;;5001411;28;20040;-76
2023/03/09 09:55:37;;;;;;;22.20;10.40;;;;;;;;;;4996464;28;20026;-75
2023/03/09 09:58:32;;;;;;;22.67;10.30;;;;;;;;;;5003176;28;20037;-76
2023/03/09 10:01:03;;;;;;;20.33;9.80;;;;;;;;;;5010096;28;20022;-76
2023/03/09 10:03:36;;;;;;;23.77;10.98;;;;;;;;;;5016201;28;20079;-76
2023/03/09 10:06:17;;;;;;;18.47;9.20;;;;;;;;;;5013707;28;20431;-75
2023/03/09 10:08:58;;;;;;;20.65;10.13;;;;;;;;;;5015986;28;20502;-76
2023/03/09 10:11:27;;;;;;;22.88;10.95;;;;;;;;;;5010453;28;20033;-76
2023/03/09 10:14:03;;;;;;;23.63;11.00;;;;;;;;;;5018429;28;20060;-76
2023/03/09 10:16:36;;;;;;;22.10;9.85;;;;;;;;;;4996962;28;20099;-76
2023/03/09 10:19:07;;;;;;;24.63;10.88;;;;;;;;;;5008936;28;20041;-76
2023/03/09 10:21:42;;;;;;;23.00;9.82;;;;;;;;;;5021676;28;20029;-76
2023/03/09 10:24:20;;;;;;;21.80;10.77;;;;;;;;;;5010606;28;20386;-76
2023/03/09 10:27:10;;;;;;;25.17;10.80;;;;;;;;;;5010862;28;20021;-76
2023/03/09 10:29:56;;;;;;;22.65;10.68;;;;;;;;;;5003936;28;20066;-76
2023/03/09 10:32:57;;;;;;;25.38;11.55;;;;;;;;;;5008911;28;20034;-76
2023/03/09 10:35:41;;;;;;;23.10;10.18;;;;;;;;;;5014438;28;20034;-76
2023/03/09 10:38:18;;;;;;;26.70;10.57;;;;;;;;;;4994515;28;20030;-76
2023/03/09 10:40:49;;;;;;;23.83;10.13;;;;;;;;;;4999441;28;20056;-76
2023/03/09 10:43:22;;;;;;;25.20;11.63;;;;;;;;;;4999165;28;20203;-76
2023/03/09 10:45:48;;;;;;;22.05;9.85;;;;;;;;;;5017232;28;20544;-76
2023/03/09 10:48:22;;;;;;;24.40;10.90;;;;;;;;;;5001674;28;20148;-76
2023/03/09 10:50:55;;;;;;;24.17;10.35;;;;;;;;;;4992149;28;20039;-76
2023/03/09 10:53:35;;;;;;;24.67;10.30;;;;;;;;;;5017452;28;20045;-76
2023/03/09 10:56:12;;;;;;;20.90;10.38;;;;;;;;;;5025169;28;20025;-76
2023/03/09 10:58:37;;;;;;;22.25;9.95;;;;;;;;;;5013449;28;20362;-76
2023/03/09 11:01:24;;;;;;;26.00;10.38;;;;;;;;;;5015026;28;20026;-76
2023/03/09 11:03:50;;;;;;;21.67;10.23;;;;;;;;;;5014065;28;20125;-76
2023/03/09 11:06:15;;;;;;;21.00;10.77;;;;;;;;;;4998292;28;20120;-75
2023/03/09 11:08:43;;;;;;;24.08;10.68;;;;;;;;;;5027120;28;20477;-76
2023/03/09 11:11:24;;;;;;;20.02;9.80;;;;;;;;;;5009388;28;20033;-76
2023/03/09 11:13:50;;;;;;;18.73;9.38;;;;;;;;;;5018046;28;20053;-76
2023/03/09 11:16:28;;;;;;;25.75;11.15;;;;;;;;;;5015908;28;20473;-76
2023/03/09 11:19:16;;;;;;;24.45;10.50;;;;;;;;;;4998559;28;20496;-79
2023/03/09 11:21:56;;;;;;;24.10;11.45;;;;;;;;;;5016259;28;20413;-76
2023/03/09 11:24:27;;;;;;;22.90;10.20;;;;;;;;;;5023493;28;20606;-76
2023/03/09 11:27:02;;;;;;;21.67;9.98;;;;;;;;;;5030004;28;20027;-76
2023/03/09 11:29:59;;;;;;;24.30;11.18;;;;;;;;;;5023084;28;20501;-76
2023/03/09 11:32:24;;;;;;;21.13;9.75;;;;;;;;;;5018995;28;20033;-76
2023/03/09 11:34:50;;;;;;;23.02;11.10;;;;;;;;;;5022188;28;20034;-75
2023/03/09 11:37:42;;;;;;;22.38;10.50;;;;;;;;;;5020924;28;20025;-76
2023/03/09 11:40:15;;;;;;;23.27;10.57;;;;;;;;;;5016610;28;20026;-76
2023/03/09 11:42:51;;;;;;;22.95;9.18;;;;;;;;;;5015109;28;20036;-76
2023/03/09 11:45:20;;;;;;;22.80;10.88;;;;;;;;;;4999580;28;20025;-76
2023/03/09 11:47:52;;;;;;;23.58;10.43;;;;;;;;;;5031035;28;20083;-76
2023/03/09 11:50:26;;;;;;;22.88;9.90;;;;;;;;;;5013886;28;20489;-75
2023/03/09 11:52:59;;;;;;;23.00;9.77;;;;;;;;;;5016977;28;20501;-76
2023/03/09 11:55:32;;;;;;;23.08;9.90;;;;;;;;;;5007281;28;20025;-76
2023/03/09 11:58:00;;;;;;;21.83;10.05;;;;;;;;;;4999737;28;20117;-76
2023/03/09 12:00:27;;;;;;;24.25;10.45;;;;;;;;;;5024787;28;20045;-75
2023/03/09 12:03:09;;;;;;;23.95;10.50;;;;;;;;;;5000722;28;20445;-76
2023/03/09 12:05:41;;;;;;;24.80;10.63;;;;;;;;;;4999454;28;20018;-76
2023/03/09 12:08:22;;;;;;;22.20;9.90;;;;;;;;;;5015468;28;20033;-76
2023/03/09 12:10:53;;;;;;;23.77;9.60;;;;;;;;;;5018576;28;20029;-76
2023/03/09 12:13:26;;;;;;;23.02;9.50;;;;;;;;;;5001275;28;20113;-75
2023/03/09 12:16:06;;;;;;;23.10;9.90;;;;;;;;;;5007861;28;20038;-76
2023/03/09 12:18:34;;;;;;;20.52;9.55;;;;;;;;;;4996340;28;20065;-76
2023/03/09 12:21:08;;;;;;;23.35;10.68;;;;;;;;;;5014151;28;20060;-76
2023/03/09 12:23:36;;;;;;;23.88;10.30;;;;;;;;;;5010963;28;20104;-76
2023/03/09 12:26:04;;;;;;;22.88;9.80;;;;;;;;;;5004640;28;20048;-75
2023/03/09 12:28:31;;;;;;;22.92;10.05;;;;;;;;;;5014823;28;20493;-76
2023/03/09 12:30:57;;;;;;;22.63;10.80;;;;;;;;;;5018507;28;20477;-76
2023/03/09 12:33:41;;;;;;;21.90;10.50;;;;;;;;;;5011436;28;20153;-76
2023/03/09 12:36:24;;;;;;;;;;;;;;;;;;5019269;28;20037;-76
2023/03/09 12:39:24;;;;;;;19.38;8.65;;;;;;;;;;4988662;28;20016;-76
2023/03/09 12:42:10;;;;;;;22.00;9.27;;;;;;;;;;5017523;28;20028;-76
2023/03/09 12:44:57;;;;;;;22.55;9.48;;;;;;;;;;4995243;28;20537;-76
2023/03/09 12:47:33;;;;;;;20.15;8.98;;;;;;;;;;5011935;28;20061;-76
2023/03/09 12:49:59;;;;;;;23.63;9.82;;;;;;;;;;5009337;28;20025;-76
2023/03/09 12:52:43;;;;;;;20.95;9.20;;;;;;;;;;4998297;28;20073;-76
2023/03/09 12:55:40;;;;;;;22.80;10.57;;;;;;;;;;4994220;28;20034;-76
2023/03/09 12:58:17;;;;;;;21.08;9.55;;;;;;;;;;4993391;28;20117;-76
2023/03/09 13:00:48;;;;;;;20.67;10.00;;;;;;;;;;5013896;28;20036;-76
2023/03/09 13:03:38;;;;;;;21.42;9.65;;;;;;;;;;4998571;28;20134;-76
2023/03/09 13:06:10;;;;;;;20.10;9.38;;;;;;;;;;4990577;28;20049;-76
2023/03/09 13:08:39;;;;;;;23.23;10.63;;;;;;;;;;5014927;28;20034;-74
2023/03/09 13:11:23;;;;;;;24.17;9.40;;;;;;;;;;5009685;28;20038;-76
2023/03/09 13:13:53;;;;;;;23.83;10.00;;;;;;;;;;4997042;28;20071;-76
2023/03/09 13:16:34;;;;;;;22.65;10.43;;;;;;;;;;5012235;28;20120;-76
2023/03/09 13:19:23;;;;;;;23.73;10.40;;;;;;;;;;5018886;28;20535;-76
2023/03/09 13:21:57;;;;;;;24.88;11.05;;;;;;;;;;5012380;28;20026;-76
2023/03/09 13:24:26;;;;;;;21.10;10.02;;;;;;;;;;4995216;28;20053;-76
2023/03/09 13:26:57;;;;;;;23.13;9.68;;;;;;;;;;4996061;28;20057;-76
2023/03/09 13:29:25;;;;;;;21.95;9.82;;;;;;;;;;5015604;28;20406;-75
2023/03/09 13:31:52;;;;;;;19.02;9.32;;;;;;;;;;5015929;28;20089;-76
2023/03/09 13:34:21;;;;;;;24.25;11.02;;;;;;;;;;5009727;28;20145;-76
2023/03/09 13:36:49;;;;;;;24.98;10.48;;;;;;;;;;5010326;28;20466;-76
2023/03/09 13:39:18;;;;;;;26.95;11.05;;;;;;;;;;5015697;28;20026;-76
2023/03/09 13:41:44;;;;;;;22.58;10.50;;;;;;;;;;5007201;28;20076;-75
2023/03/09 13:44:17;;;;;;;21.73;9.60;;;;;;;;;;5005040;28;20034;-76
2023/03/09 13:46:47;;;;;;;24.65;9.90;;;;;;;;;;4980396;28;20038;-76
2023/03/09 13:49:33;;;;;;;21.52;9.30;;;;;;;;;;5019092;28;20140;-76
2023/03/09 13:52:06;;;;;;;20.98;9.35;;;;;;;;;;5014066;28;20033;-76
2023/03/09 13:54:36;;;;;;;;;;;;;;;;;;5012651;28;20045;-76
2023/03/09 13:57:15;;;;;;;22.23;9.57;;;;;;;;;;5018375;28;19921;-76
2023/03/09 13:59:49;;;;;;;23.85;9.90;;;;;;;;;;5009187;28;20092;-77
2023/03/09 14:02:15;;;;;;;20.48;9.18;;;;;;;;;;4994762;28;20124;-75
2023/03/09 14:05:04;;;;;;;24.55;8.80;;;;;;;;;;5012424;28;20440;-76
2023/03/09 14:07:52;;;;;;;18.83;7.95;;;;;;;;;;4990717;28;20037;-76
2023/03/09 14:10:34;;;;;;;17.73;7.80;;;;;;;;;;5013792;28;20726;-76
2023/03/09 14:13:16;;;;;;;19.90;8.18;;;;;;;;;;5009257;28;20091;-76
2023/03/09 14:15:43;;;;;;;20.20;8.68;;;;;;;;;;5012834;28;20033;-76
2023/03/09 14:18:33;;;;;;;20.27;9.05;;;;;;;;;;4996587;28;20437;-75
2023/03/09 14:20:58;;;;;;;21.90;8.85;;;;;;;;;;5011596;28;20026;-76
2023/03/09 14:23:42;;;;;;;20.60;8.52;;;;;;;;;;5009790;28;20445;-76
2023/03/09 14:26:08;;;;;;;21.58;8.85;;;;;;;;;;5007998;28;20038;-76
2023/03/09 14:28:40;;;;;;;19.75;8.88;;;;;;;;;;5023051;28;20060;-76
2023/03/09 14:31:19;;;;;;;19.75;8.82;;;;;;;;;;5010297;28;20474;-76
2023/03/09 14:34:05;;;;;;;22.42;9.40;;;;;;;;;;4993097;28;20026;-76
2023/03/09 14:36:58;;;;;;;20.42;9.10;;;;;;;;;;5012077;28;20100;-76
2023/03/09 14:39:30;;;;;;;19.48;8.48;;;;;;;;;;4995259;28;20040;-76
2023/03/09 14:42:16;;;;;;;19.02;8.98;;;;;;;;;;5012526;28;20041;-76
2023/03/09 14:45:03;;;;;;;20.17;9.32;;;;;;;;;;5015218;28;20022;-76